createdAt,value
2023-01-29T00:01:15.371Z,97076.19
2023-01-29T00:03:48.664Z,97092.22
2023-01-29T00:06:19.351Z,97093.03
2023-01-29T00:08:50.126Z,97084.03
2023-01-29T00:11:20.740Z,97094.28
2023-01-29T00:13:51.822Z,97090.22
2023-01-29T00:16:22.594Z,97093.78
2023-01-29T00:18:55.883Z,97093.34
2023-01-29T00:21:26.556Z,97086.94
2023-01-29T00:23:58.425Z,97091.13
2023-01-29T00:26:29.686Z,97090.53
2023-01-29T00:29:00.808Z,97098.06
2023-01-29T00:31:31.597Z,97103.84
2023-01-29T00:34:04.889Z,97098.28
2023-01-29T00:36:35.342Z,97102.28
2023-01-29T00:39:11.951Z,97102.69
2023-01-29T00:41:54.983Z,97105.19
2023-01-29T00:44:37.934Z,97104.75
2023-01-29T00:47:30.080Z,97106.25
2023-01-29T00:50:03.851Z,97101.75
2023-01-29T00:52:36.615Z,97098.09
2023-01-29T00:55:08.729Z,97102.81
2023-01-29T00:57:40.476Z,97107.50
2023-01-29T01:00:15.467Z,97102.47
2023-01-29T01:02:58.885Z,97105.28
2023-01-29T01:05:32.896Z,97099.81
2023-01-29T01:08:04.178Z,97106.47
2023-01-29T01:10:34.126Z,97103.53
2023-01-29T01:13:08.915Z,97100.38
2023-01-29T01:15:41.555Z,97105.88
2023-01-29T01:18:12.832Z,97102.97
2023-01-29T01:20:46.084Z,97106.97
2023-01-29T01:23:16.665Z,97105.97
2023-01-29T01:25:47.251Z,97102.28
2023-01-29T01:28:17.980Z,97111.91
2023-01-29T01:30:48.611Z,97113.78
2023-01-29T01:33:19.256Z,97111.25
2023-01-29T01:35:52.490Z,97111.56
2023-01-29T01:38:22.973Z,97110.09
2023-01-29T01:40:54.155Z,97117.38
2023-01-29T01:43:28.346Z,97113.50
2023-01-29T01:45:59.768Z,97110.75
2023-01-29T01:48:30.898Z,97116.88
2023-01-29T01:51:08.831Z,97118.28
2023-01-29T01:53:43.514Z,97122.56
2023-01-29T01:56:18.748Z,97119.03
2023-01-29T01:58:55.337Z,97119.34
2023-01-29T02:01:33.447Z,97116.31
2023-01-29T02:04:22.041Z,97118.66
2023-01-29T02:07:09.650Z,97108.72
2023-01-29T02:09:47.446Z,97114.75
2023-01-29T02:12:20.703Z,97108.91
2023-01-29T02:14:55.537Z,97117.66
2023-01-29T02:17:26.732Z,97108.03
2023-01-29T02:20:07.541Z,97117.13
2023-01-29T02:23:17.512Z,97117.06
2023-01-29T02:26:28.065Z,97111.38
2023-01-29T02:29:22.740Z,97124.59
2023-01-29T02:32:06.673Z,97120.97
2023-01-29T02:34:57.753Z,97116.59
2023-01-29T02:37:36.371Z,97120.66
2023-01-29T02:40:15.923Z,97119.00
2023-01-29T02:42:54.657Z,97126.25
2023-01-29T02:45:39.789Z,97122.41
2023-01-29T02:48:13.949Z,97113.56
2023-01-29T02:50:51.305Z,97125.34
2023-01-29T02:53:31.641Z,97125.72
2023-01-29T02:56:07.501Z,97119.41
2023-01-29T02:58:45.897Z,97122.56
2023-01-29T03:01:25.016Z,97123.19
2023-01-29T03:04:00.595Z,97122.34
2023-01-29T03:06:35.944Z,97127.41
2023-01-29T03:09:10.995Z,97132.00
2023-01-29T03:11:45.286Z,97123.81
2023-01-29T03:14:19.925Z,97134.28
2023-01-29T03:16:55.812Z,97127.84
2023-01-29T03:19:34.699Z,97140.19
2023-01-29T03:22:11.016Z,97131.94
2023-01-29T03:24:58.064Z,97137.56
2023-01-29T03:27:45.143Z,97132.00
2023-01-29T03:30:31.815Z,97140.34
2023-01-29T03:33:21.455Z,97137.41
2023-01-29T03:35:56.899Z,97146.72
2023-01-29T03:38:32.528Z,97142.19
2023-01-29T03:41:12.215Z,97142.00
2023-01-29T03:43:55.136Z,97135.69
2023-01-29T03:46:33.974Z,97133.81
2023-01-29T03:49:15.420Z,97132.88
2023-01-29T03:51:56.658Z,97137.03
2023-01-29T03:54:35.147Z,97137.03
2023-01-29T03:57:15.663Z,97138.72
2023-01-29T03:59:55.838Z,97137.66
2023-01-29T04:02:52.925Z,97134.94
2023-01-29T04:05:31.172Z,97134.94
2023-01-29T04:08:17.774Z,97136.59
2023-01-29T04:10:53.091Z,97136.59
2023-01-29T04:13:24.471Z,97142.69
2023-01-29T04:16:01.172Z,97147.06
2023-01-29T04:18:57.808Z,97143.75
2023-01-29T04:21:37.427Z,97144.34
2023-01-29T04:24:09.577Z,97149.59
2023-01-29T04:26:53.623Z,97154.00
2023-01-29T04:29:38.242Z,97157.34
2023-01-29T04:32:18.485Z,97146.00
2023-01-29T04:35:03.548Z,97161.72
2023-01-29T04:37:44.245Z,97153.75
2023-01-29T04:40:23.097Z,97159.97
2023-01-29T04:43:02.944Z,97161.63
2023-01-29T04:45:44.898Z,97155.56
2023-01-29T04:48:23.409Z,97163.53
2023-01-29T04:51:01.475Z,97166.03
2023-01-29T04:53:43.336Z,97164.25
2023-01-29T04:56:22.349Z,97166.84
2023-01-29T04:58:58.351Z,97173.91
2023-01-29T05:01:33.433Z,97175.66
2023-01-29T05:04:07.742Z,97180.91
2023-01-29T05:06:40.554Z,97181.00
2023-01-29T05:09:17.227Z,97179.25
2023-01-29T05:11:50.686Z,97181.84
2023-01-29T05:14:22.948Z,97186.03
2023-01-29T05:16:57.175Z,97187.50
2023-01-29T05:19:27.788Z,97192.63
2023-01-29T05:21:59.458Z,97182.88
2023-01-29T05:24:32.589Z,97186.22
2023-01-29T05:27:15.729Z,97195.66
2023-01-29T05:29:49.186Z,97196.34
2023-01-29T05:32:20.252Z,97194.59
2023-01-29T05:34:50.699Z,97194.47
2023-01-29T05:37:21.328Z,97190.28
2023-01-29T05:39:54.799Z,97197.09
2023-01-29T05:42:25.838Z,97196.25
2023-01-29T05:44:56.575Z,97204.97
2023-01-29T05:47:27.271Z,97216.25
2023-01-29T05:49:57.928Z,97212.69
2023-01-29T05:52:28.714Z,97225.78
2023-01-29T05:55:01.871Z,97227.47
2023-01-29T05:57:33.988Z,97223.91
2023-01-29T06:00:04.866Z,97220.53
2023-01-29T06:02:43.208Z,97232.94
2023-01-29T06:05:14.145Z,97232.81
2023-01-29T06:07:45.632Z,97232.19
2023-01-29T06:10:21.576Z,97247.91
2023-01-29T06:12:51.888Z,97245.28
2023-01-29T06:15:22.749Z,97241.84
2023-01-29T06:17:53.417Z,97250.53
2023-01-29T06:20:24.321Z,97250.53
2023-01-29T06:22:54.860Z,97247.91
2023-01-29T06:25:28.119Z,97245.28
2023-01-29T06:27:59.634Z,97248.53
2023-01-29T06:30:32.145Z,97253.69
2023-01-29T06:33:03.165Z,97259.53
2023-01-29T06:35:33.969Z,97261.94
2023-01-29T06:38:04.688Z,97255.63
2023-01-29T06:40:38.056Z,97259.94
2023-01-29T06:43:08.605Z,97271.97
2023-01-29T06:45:39.345Z,97271.13
2023-01-29T06:48:10.238Z,97275.44
2023-01-29T06:50:40.821Z,97269.13
2023-01-29T06:53:11.418Z,97278.78
2023-01-29T06:55:44.710Z,97271.66
2023-01-29T06:58:15.662Z,97280.53
2023-01-29T07:00:46.336Z,97284.31
2023-01-29T07:03:17.423Z,97293.13
2023-01-29T07:05:54.028Z,97286.00
2023-01-29T07:08:24.590Z,97292.41
2023-01-29T07:11:02.140Z,97293.31
2023-01-29T07:13:33.008Z,97294.78
2023-01-29T07:16:04.583Z,97300.25
2023-01-29T07:18:35.538Z,97304.63
2023-01-29T07:21:08.463Z,97298.53
2023-01-29T07:23:39.261Z,97307.78
2023-01-29T07:26:14.288Z,97300.78
2023-01-29T07:28:44.899Z,97301.38
2023-01-29T07:31:17.260Z,97311.31
2023-01-29T07:33:48.256Z,97297.22
2023-01-29T07:36:19.048Z,97304.63
2023-01-29T07:38:52.952Z,97301.91
2023-01-29T07:41:26.039Z,97306.59
2023-01-29T07:43:56.492Z,97302.81
2023-01-29T07:46:27.102Z,97304.94
2023-01-29T07:48:57.614Z,97308.47
2023-01-29T07:51:28.366Z,97312.34
2023-01-29T07:53:58.911Z,97320.69
2023-01-29T07:56:32.143Z,97318.72
2023-01-29T07:59:02.605Z,97322.84
2023-01-29T08:01:33.287Z,97327.91
2023-01-29T08:04:03.780Z,97334.63
2023-01-29T08:06:34.386Z,97336.25
2023-01-29T08:09:05.023Z,97337.09
2023-01-29T08:11:38.231Z,97340.69
2023-01-29T08:14:09.560Z,97339.84
2023-01-29T08:16:40.170Z,97345.19
2023-01-29T08:19:10.701Z,97344.88
2023-01-29T08:21:41.375Z,97344.97
2023-01-29T08:24:12.025Z,97343.19
2023-01-29T08:26:45.366Z,97355.25
2023-01-29T08:29:16.196Z,97349.16
2023-01-29T08:31:46.938Z,97359.94
2023-01-29T08:34:17.498Z,97344.34
2023-01-29T08:36:48.144Z,97359.28
2023-01-29T08:39:18.751Z,97358.78
2023-01-29T08:41:51.925Z,97352.47
2023-01-29T08:44:22.451Z,97361.56
2023-01-29T08:46:53.637Z,97360.94
2023-01-29T08:49:24.216Z,97352.78
2023-01-29T08:51:55.124Z,97356.16
2023-01-29T08:54:25.804Z,97365.09
2023-01-29T08:56:59.492Z,97367.09
2023-01-29T08:59:30.150Z,97357.91
2023-01-29T09:02:00.810Z,97370.19
2023-01-29T09:04:31.349Z,97372.16
2023-01-29T09:07:01.916Z,97377.25
2023-01-29T09:09:32.709Z,97373.78
2023-01-29T09:12:06.046Z,97376.38
2023-01-29T09:14:36.689Z,97368.13
2023-01-29T09:17:07.313Z,97361.63
2023-01-29T09:19:37.942Z,97361.91
2023-01-29T09:22:10.350Z,97362.91
2023-01-29T09:24:41.693Z,97360.84
2023-01-29T09:27:15.199Z,97355.78
2023-01-29T09:29:45.931Z,97359.94
2023-01-29T09:32:23.221Z,97357.00
2023-01-29T09:35:02.366Z,97363.25
2023-01-29T09:37:33.308Z,97354.34
2023-01-29T09:40:03.902Z,97363.16
2023-01-29T09:42:45.506Z,97351.16
2023-01-29T09:45:19.675Z,97354.81
2023-01-29T09:47:50.584Z,97350.81
2023-01-29T09:50:25.175Z,97339.31
2023-01-29T09:53:02.009Z,97347.59
2023-01-29T09:55:36.732Z,97341.56
2023-01-29T09:58:17.358Z,97338.94
2023-01-29T10:00:57.580Z,97341.25
2023-01-29T10:03:44.127Z,97337.50
2023-01-29T10:06:27.624Z,97342.50
2023-01-29T10:09:14.459Z,97341.06
2023-01-29T10:11:58.193Z,97341.19
2023-01-29T10:14:41.088Z,97337.09
2023-01-29T10:17:41.709Z,97329.94
2023-01-29T10:20:45.241Z,97332.47
2023-01-29T10:23:25.434Z,97331.09
2023-01-29T10:25:57.106Z,97323.81
2023-01-29T10:28:33.395Z,97326.66
2023-01-29T10:31:11.488Z,97327.56
2023-01-29T10:34:02.475Z,97322.50
2023-01-29T10:36:39.525Z,97318.66
2023-01-29T10:39:19.778Z,97322.97
2023-01-29T10:42:07.895Z,97311.69
2023-01-29T10:44:49.342Z,97315.09
2023-01-29T10:47:49.846Z,97315.94
2023-01-29T10:50:37.669Z,97309.03
2023-01-29T10:53:34.627Z,97305.50
2023-01-29T10:56:23.087Z,97298.38
2023-01-29T10:58:58.190Z,97301.69
2023-01-29T11:01:29.207Z,97296.66
2023-01-29T11:04:05.330Z,97275.09
2023-01-29T11:06:38.537Z,97294.13
2023-01-29T11:09:14.624Z,97298.09
2023-01-29T11:11:49.296Z,97290.88
2023-01-29T11:14:25.148Z,97286.13
2023-01-29T11:16:56.342Z,97282.34
2023-01-29T11:19:41.819Z,97277.63
2023-01-29T11:22:18.222Z,97280.72
2023-01-29T11:24:49.332Z,97286.94
2023-01-29T11:27:26.866Z,97276.91
2023-01-29T11:29:57.596Z,97274.91
2023-01-29T11:32:31.565Z,97272.22
2023-01-29T11:35:22.886Z,97268.91
2023-01-29T11:37:53.416Z,97265.47
2023-01-29T11:40:41.387Z,97264.34
2023-01-29T11:43:36.385Z,97259.81
2023-01-29T11:46:10.127Z,97258.78
2023-01-29T11:48:46.704Z,97258.34
2023-01-29T11:51:30.189Z,97255.44
2023-01-29T11:54:02.997Z,97260.34
2023-01-29T11:56:38.939Z,97261.94
2023-01-29T11:59:09.789Z,97259.00
2023-01-29T12:01:42.537Z,97256.91
2023-01-29T12:04:22.482Z,97257.88
2023-01-29T12:06:57.626Z,97255.44
2023-01-29T12:09:32.550Z,97244.16
2023-01-29T12:12:21.441Z,97256.69
2023-01-29T12:15:07.797Z,97260.25
2023-01-29T12:17:41.347Z,97258.28
2023-01-29T12:20:18.630Z,97259.63
2023-01-29T12:23:01.432Z,97259.44
2023-01-29T12:25:43.689Z,97256.16
2023-01-29T12:28:26.401Z,97261.09
2023-01-29T12:31:15.005Z,97268.41
2023-01-29T12:33:53.518Z,97262.38
2023-01-29T12:36:31.385Z,97263.50
2023-01-29T12:39:04.690Z,97264.03
2023-01-29T12:41:45.811Z,97257.44
2023-01-29T12:44:23.043Z,97263.84
2023-01-29T12:46:57.119Z,97261.50
2023-01-29T12:49:30.694Z,97266.13
2023-01-29T12:52:06.000Z,97262.13
2023-01-29T12:54:43.785Z,97261.72
2023-01-29T12:57:24.365Z,97264.25
2023-01-29T13:00:01.551Z,97263.59
2023-01-29T13:02:40.196Z,97260.06
2023-01-29T13:05:23.814Z,97260.25
2023-01-29T13:08:00.583Z,97255.03
2023-01-29T13:10:40.827Z,97272.28
2023-01-29T13:13:19.640Z,97271.09
2023-01-29T13:15:51.214Z,97268.78
2023-01-29T13:18:40.950Z,97278.00
2023-01-29T13:21:17.252Z,97277.28
2023-01-29T13:23:50.264Z,97282.34
2023-01-29T13:26:26.726Z,97280.09
2023-01-29T13:28:57.759Z,97279.66
2023-01-29T13:31:32.718Z,97285.69
2023-01-29T13:34:11.327Z,97274.84
2023-01-29T13:36:46.116Z,97274.06
2023-01-29T13:39:26.647Z,97279.44
2023-01-29T13:42:02.610Z,97278.25
2023-01-29T13:44:36.611Z,97280.03
2023-01-29T13:47:10.784Z,97276.78
2023-01-29T13:49:44.878Z,97270.16
2023-01-29T13:52:24.978Z,97279.59
2023-01-29T13:55:00.689Z,97274.38
2023-01-29T13:57:56.407Z,97284.22
2023-01-29T14:01:01.479Z,97284.97
2023-01-29T14:04:05.699Z,97282.31
2023-01-29T14:06:51.694Z,97290.97
2023-01-29T14:09:59.720Z,97289.53
2023-01-29T14:12:51.220Z,97291.22
2023-01-29T14:15:27.249Z,97293.50
2023-01-29T14:18:05.908Z,97292.81
2023-01-29T14:20:48.796Z,97284.53
2023-01-29T14:23:30.673Z,97285.19
2023-01-29T14:26:05.010Z,97269.34
2023-01-29T14:28:38.686Z,97286.09
2023-01-29T14:31:09.446Z,97288.31
2023-01-29T14:33:43.607Z,97285.16
2023-01-29T14:36:17.573Z,97285.72
2023-01-29T14:38:53.450Z,97289.28
2023-01-29T14:41:30.329Z,97298.50
2023-01-29T14:44:30.736Z,97298.13
2023-01-29T14:47:03.892Z,97307.50
2023-01-29T14:49:53.269Z,97292.63
2023-01-29T14:52:27.947Z,97297.38
2023-01-29T14:55:04.168Z,97295.53
2023-01-29T14:57:35.227Z,97305.97
2023-01-29T15:00:09.847Z,97311.97
2023-01-29T15:02:47.032Z,97309.47
2023-01-29T15:05:22.690Z,97311.00
2023-01-29T15:07:56.489Z,97305.50
2023-01-29T15:10:37.230Z,97320.59
2023-01-29T15:13:17.528Z,97323.13
2023-01-29T15:15:54.197Z,97319.28
2023-01-29T15:18:34.643Z,97321.09
2023-01-29T15:21:08.915Z,97327.22
2023-01-29T15:23:40.969Z,97318.41
2023-01-29T15:26:16.333Z,97319.19
2023-01-29T15:28:51.840Z,97327.72
2023-01-29T15:31:30.191Z,97329.31
2023-01-29T15:34:09.823Z,97322.41
2023-01-29T15:36:41.320Z,97326.66
2023-01-29T15:39:31.903Z,97334.59
2023-01-29T15:42:21.904Z,97328.34
2023-01-29T15:44:52.939Z,97316.50
2023-01-29T15:47:27.068Z,97330.69
2023-01-29T15:50:00.902Z,97329.06
2023-01-29T15:52:36.507Z,97333.38
2023-01-29T15:55:07.495Z,97338.94
2023-01-29T15:57:41.022Z,97330.56
2023-01-29T16:00:23.022Z,97336.34
2023-01-29T16:02:53.795Z,97337.13
2023-01-29T16:05:30.484Z,97334.88
2023-01-29T16:08:02.815Z,97335.59
2023-01-29T16:10:35.470Z,97330.28
2023-01-29T16:13:06.890Z,97328.59
2023-01-29T16:15:40.512Z,97325.03
2023-01-29T16:18:24.500Z,97331.22
2023-01-29T16:21:07.507Z,97326.72
2023-01-29T16:23:44.217Z,97329.00
2023-01-29T16:26:20.535Z,97331.78
2023-01-29T16:28:51.707Z,97335.69
2023-01-29T16:31:28.954Z,97329.94
2023-01-29T16:34:01.352Z,97336.56
2023-01-29T16:36:34.800Z,97333.53
2023-01-29T16:39:09.051Z,97334.16
2023-01-29T16:41:40.794Z,97335.84
2023-01-29T16:44:36.260Z,97338.34
2023-01-29T16:47:14.676Z,97347.16
2023-01-29T16:49:52.778Z,97338.75
2023-01-29T16:52:28.430Z,97345.75
2023-01-29T16:55:18.726Z,97346.69
2023-01-29T16:57:55.945Z,97342.50
2023-01-29T17:00:28.957Z,97329.63
2023-01-29T17:03:04.126Z,97335.59
2023-01-29T17:05:37.855Z,97330.75
2023-01-29T17:08:17.545Z,97341.03
2023-01-29T17:10:51.641Z,97335.97
2023-01-29T17:13:33.717Z,97342.91
2023-01-29T17:16:06.391Z,97335.97
2023-01-29T17:18:37.212Z,97331.69
2023-01-29T17:21:08.500Z,97338.72
2023-01-29T17:23:44.112Z,97334.84
2023-01-29T17:26:18.095Z,97323.72
2023-01-29T17:28:52.475Z,97324.81
2023-01-29T17:31:24.349Z,97331.13
2023-01-29T17:33:55.363Z,97322.25
2023-01-29T17:36:26.662Z,97323.31
2023-01-29T17:39:01.424Z,97329.44
2023-01-29T17:41:34.140Z,97328.88
2023-01-29T17:44:04.569Z,97327.94
2023-01-29T17:46:35.143Z,97327.91
2023-01-29T17:49:07.788Z,97322.53
2023-01-29T17:51:38.620Z,97325.63
2023-01-29T17:54:11.987Z,97321.91
2023-01-29T17:56:42.764Z,97324.59
2023-01-29T17:59:17.622Z,97317.69
2023-01-29T18:01:48.696Z,97311.75
2023-01-29T18:04:19.770Z,97309.38
2023-01-29T18:06:52.307Z,97319.00
2023-01-29T18:09:26.325Z,97315.75
2023-01-29T18:11:57.380Z,97318.59
2023-01-29T18:14:28.623Z,97311.25
2023-01-29T18:16:59.492Z,97315.84
2023-01-29T18:19:31.410Z,97315.44
2023-01-29T18:22:02.587Z,97312.19
2023-01-29T18:24:36.415Z,97318.88
2023-01-29T18:27:07.462Z,97315.09
2023-01-29T18:29:38.535Z,97316.56
2023-01-29T18:32:10.403Z,97314.66
2023-01-29T18:34:41.424Z,97316.22
2023-01-29T18:37:13.148Z,97310.78
2023-01-29T18:39:46.417Z,97314.00
2023-01-29T18:42:17.851Z,97315.47
2023-01-29T18:44:49.168Z,97308.75
2023-01-29T18:47:20.155Z,97315.81
2023-01-29T18:49:52.267Z,97314.34
2023-01-29T18:52:23.019Z,97317.78
2023-01-29T18:54:56.551Z,97330.38
2023-01-29T18:58:27.076Z,97319.91
2023-01-29T19:00:19.019Z,97316.56
2023-01-29T19:02:51.019Z,97312.13
2023-01-29T19:05:23.995Z,97328.19
2023-01-29T19:07:55.396Z,97330.16
2023-01-29T19:10:29.332Z,97326.00
2023-01-29T19:13:00.099Z,97333.13
2023-01-29T19:15:31.365Z,97332.63
2023-01-29T19:18:02.902Z,97326.34
2023-01-29T19:20:33.509Z,97331.28
2023-01-29T19:23:04.397Z,97334.41
2023-01-29T19:25:39.935Z,97325.41
2023-01-29T19:28:10.773Z,97327.56
2023-01-29T19:30:42.021Z,97333.53
2023-01-29T19:33:14.022Z,97330.91
2023-01-29T19:35:47.639Z,97332.91
2023-01-29T19:38:21.611Z,97331.78
2023-01-29T19:40:55.667Z,97331.16
2023-01-29T19:43:26.651Z,97322.34
2023-01-29T19:46:00.966Z,97332.00
2023-01-29T19:48:31.956Z,97328.75
2023-01-29T19:51:04.519Z,97331.03
2023-01-29T19:53:36.004Z,97325.81
2023-01-29T19:56:11.561Z,97330.22
2023-01-29T19:58:43.269Z,97320.47
2023-01-29T20:01:18.088Z,97327.06
2023-01-29T20:03:49.542Z,97314.69
2023-01-29T20:06:24.023Z,97320.25
2023-01-29T20:08:55.428Z,97318.50
2023-01-29T20:11:29.575Z,97315.31
2023-01-29T20:14:01.987Z,97317.94
2023-01-29T20:16:32.658Z,97319.09
2023-01-29T20:19:13.427Z,97310.09
2023-01-29T20:21:46.155Z,97317.84
2023-01-29T20:24:17.179Z,97318.25
2023-01-29T20:26:50.682Z,97318.59
2023-01-29T20:29:21.564Z,97328.53
2023-01-29T20:31:52.161Z,97332.81
2023-01-29T20:34:23.046Z,97327.59
2023-01-29T20:36:53.642Z,97329.78
2023-01-29T20:39:24.433Z,97329.78
2023-01-29T20:41:57.926Z,97334.81
2023-01-29T20:44:29.735Z,97329.34
2023-01-29T20:47:02.902Z,97336.06
2023-01-29T20:49:34.338Z,97340.69
2023-01-29T20:52:04.971Z,97340.69
2023-01-29T20:54:35.699Z,97344.25
2023-01-29T20:57:09.171Z,97348.22
2023-01-29T20:59:39.705Z,97346.34
2023-01-29T21:02:10.574Z,97350.94
2023-01-29T21:04:43.049Z,97348.84
2023-01-29T21:07:14.969Z,97347.78
2023-01-29T21:09:46.450Z,97346.44
2023-01-29T21:12:20.039Z,97353.34
2023-01-29T21:14:50.782Z,97341.81
2023-01-29T21:17:21.441Z,97354.28
2023-01-29T21:19:52.279Z,97350.53
2023-01-29T21:22:24.320Z,97348.97
2023-01-29T21:24:55.213Z,97347.69
2023-01-29T21:27:28.761Z,97354.47
2023-01-29T21:29:59.706Z,97354.91
2023-01-29T21:32:31.235Z,97352.56
2023-01-29T21:35:02.232Z,97355.81
2023-01-29T21:37:37.104Z,97354.69
2023-01-29T21:40:09.773Z,97357.63
2023-01-29T21:42:55.290Z,97357.44
2023-01-29T21:45:25.988Z,97348.63
2023-01-29T21:47:56.643Z,97356.34
2023-01-29T21:50:27.870Z,97348.91
2023-01-29T21:52:58.403Z,97345.25
2023-01-29T21:55:29.045Z,97345.78
2023-01-29T21:58:03.139Z,97350.59
2023-01-29T22:00:33.952Z,97341.16
2023-01-29T22:03:04.793Z,97341.50
2023-01-29T22:05:41.658Z,97309.28
2023-01-29T22:08:12.321Z,97332.03
2023-01-29T22:10:43.122Z,97332.69
2023-01-29T22:13:16.610Z,97331.41
2023-01-29T22:15:47.379Z,97336.88
2023-01-29T22:18:18.136Z,97334.63
2023-01-29T22:20:48.933Z,97338.81
2023-01-29T22:23:19.529Z,97339.34
2023-01-29T22:25:50.820Z,97334.69
2023-01-29T22:28:24.090Z,97332.25
2023-01-29T22:30:54.758Z,97332.56
2023-01-29T22:33:26.195Z,97335.78
2023-01-29T22:35:57.285Z,97334.19
2023-01-29T22:38:27.977Z,97336.44
2023-01-29T22:41:00.172Z,97334.38
2023-01-29T22:43:33.570Z,97337.78
2023-01-29T22:46:04.053Z,97335.28
2023-01-29T22:48:35.758Z,97339.91
2023-01-29T22:51:14.176Z,97338.00
2023-01-29T22:53:46.201Z,97340.22
2023-01-29T22:56:16.729Z,97340.59
2023-01-29T22:58:53.299Z,97334.44
2023-01-29T23:01:25.661Z,97337.44
2023-01-29T23:03:56.723Z,97332.47
2023-01-29T23:06:27.731Z,97335.19
2023-01-29T23:08:58.343Z,97321.41
2023-01-29T23:11:29.077Z,97332.16
2023-01-29T23:14:02.219Z,97329.84
2023-01-29T23:16:32.840Z,97324.97
2023-01-29T23:19:03.383Z,97321.16
2023-01-29T23:21:34.336Z,97323.75
2023-01-29T23:24:06.184Z,97323.34
2023-01-29T23:26:49.403Z,97321.63
2023-01-29T23:29:22.709Z,97318.47
2023-01-29T23:31:55.513Z,97315.84
2023-01-29T23:34:26.274Z,97304.75
2023-01-29T23:36:57.084Z,97308.16
2023-01-29T23:39:27.891Z,97305.06
2023-01-29T23:41:58.763Z,97313.13
2023-01-29T23:44:32.388Z,97311.63
2023-01-29T23:47:03.059Z,97313.88
2023-01-29T23:49:33.642Z,97311.16
2023-01-29T23:52:04.306Z,97314.81
2023-01-29T23:54:34.803Z,97316.38
2023-01-29T23:57:05.335Z,97322.88
2023-01-29T23:59:38.544Z,97316.47
